KES68Q TFFG-TJSJ
Flight info
| Callsign | KES68Q |
|---|---|
| Flight time | 0h 55m |
| Altitude | 16000 |
| Route | PJM R760 COY RTE4 VEDAS |
| Aircraft | AT75/M-SDFGIRY/S |
Departure
| Time | 2026-04-26 21:32 |
|---|---|
| Airport | Grand Case-l'Espérance Airport (TFFG) |
Arrival
| Time | 2026-04-26 22:27 |
|---|---|
| Airport | Luis Munoz Marin International Airport (TJSJ) |
| Time | Latitude | Longitude | Altitude | Speed | Heading |
|---|---|---|---|---|---|
| 2026-04-26 21:23 | 18.10138 | -63.04816 | 16 ft | 0 kts | 154° |
| 2026-04-26 21:29 | 18.10136 | -63.04815 | 16 ft | 0 kts | 154° |
| 2026-04-26 21:29 | 18.10123 | -63.04826 | 16 ft | 6 kts | 248° |
| 2026-04-26 21:30 | 18.10076 | -63.04877 | 16 ft | 12 kts | 221° |
| 2026-04-26 21:30 | 18.10068 | -63.04971 | 16 ft | 15 kts | 285° |
| 2026-04-26 21:30 | 18.10101 | -63.05084 | 16 ft | 16 kts | 287° |
| 2026-04-26 21:30 | 18.10133 | -63.05202 | 14 ft | 11 kts | 285° |
| 2026-04-26 21:31 | 18.10150 | -63.05227 | 14 ft | 5 kts | 113° |
| 2026-04-26 21:31 | 18.10143 | -63.05220 | 14 ft | 4 kts | 107° |
| 2026-04-26 21:31 | 18.10151 | -63.05244 | 13 ft | 0 kts | 108° |
| 2026-04-26 21:32 | 18.10083 | -63.05001 | 16 ft | 71 kts | 107° |
| 2026-04-26 21:32 | 18.09890 | -63.04327 | 113 ft | 111 kts | 108° |
| 2026-04-26 21:32 | 18.09685 | -63.03522 | 451 ft | 119 kts | 107° |
| 2026-04-26 21:32 | 18.09491 | -63.02678 | 867 ft | 120 kts | 104° |
| 2026-04-26 21:33 | 18.09315 | -63.01816 | 1263 ft | 123 kts | 104° |
| 2026-04-26 21:33 | 18.09145 | -63.00931 | 1585 ft | 132 kts | 102° |
| 2026-04-26 21:33 | 18.09008 | -62.99936 | 1945 ft | 142 kts | 87° |
| 2026-04-26 21:33 | 18.09276 | -62.98880 | 2201 ft | 161 kts | 67° |
| 2026-04-26 21:34 | 18.09969 | -62.97914 | 2596 ft | 169 kts | 45° |
| 2026-04-26 21:34 | 18.10956 | -62.97280 | 3093 ft | 171 kts | 24° |
| 2026-04-26 21:34 | 18.12103 | -62.96984 | 3495 ft | 175 kts | 14° |
| 2026-04-26 21:34 | 18.13271 | -62.97201 | 3944 ft | 179 kts | 328° |
| 2026-04-26 21:35 | 18.14016 | -62.98240 | 4321 ft | 183 kts | 284° |
| 2026-04-26 21:35 | 18.14089 | -62.99553 | 4717 ft | 183 kts | 270° |
| 2026-04-26 21:35 | 18.14089 | -63.00903 | 5109 ft | 184 kts | 268° |
| 2026-04-26 21:35 | 18.14076 | -63.02241 | 5472 ft | 185 kts | 268° |
| 2026-04-26 21:36 | 18.14059 | -63.03598 | 5818 ft | 186 kts | 268° |
| 2026-04-26 21:36 | 18.14041 | -63.04969 | 6168 ft | 187 kts | 268° |
| 2026-04-26 21:36 | 18.14022 | -63.06325 | 6504 ft | 188 kts | 267° |
| 2026-04-26 21:36 | 18.14001 | -63.07707 | 6835 ft | 189 kts | 268° |
| 2026-04-26 21:37 | 18.13984 | -63.09086 | 7163 ft | 190 kts | 268° |
| 2026-04-26 21:37 | 18.13964 | -63.10478 | 7485 ft | 191 kts | 268° |
| 2026-04-26 21:37 | 18.13944 | -63.11883 | 7802 ft | 192 kts | 268° |
| 2026-04-26 21:37 | 18.13924 | -63.13281 | 8112 ft | 193 kts | 269° |
| 2026-04-26 21:38 | 18.13905 | -63.14678 | 8415 ft | 193 kts | 269° |
| 2026-04-26 21:38 | 18.13884 | -63.16091 | 8716 ft | 194 kts | 269° |
| 2026-04-26 21:38 | 18.13864 | -63.17508 | 9011 ft | 195 kts | 269° |
| 2026-04-26 21:38 | 18.13844 | -63.18940 | 9303 ft | 196 kts | 269° |
| 2026-04-26 21:39 | 18.13823 | -63.20379 | 9590 ft | 196 kts | 269° |
| 2026-04-26 21:39 | 18.13802 | -63.21811 | 9870 ft | 197 kts | 269° |
| 2026-04-26 21:39 | 18.13781 | -63.23246 | 10145 ft | 198 kts | 269° |
| 2026-04-26 21:39 | 18.13759 | -63.24708 | 10419 ft | 198 kts | 269° |
| 2026-04-26 21:40 | 18.13738 | -63.26154 | 10684 ft | 199 kts | 269° |
| 2026-04-26 21:40 | 18.13716 | -63.27606 | 10945 ft | 200 kts | 269° |
| 2026-04-26 21:40 | 18.13694 | -63.29061 | 11201 ft | 200 kts | 269° |
| 2026-04-26 21:40 | 18.13672 | -63.30524 | 11454 ft | 201 kts | 269° |
| 2026-04-26 21:41 | 18.13650 | -63.32011 | 11705 ft | 202 kts | 269° |
| 2026-04-26 21:41 | 18.13628 | -63.33485 | 11949 ft | 202 kts | 269° |
| 2026-04-26 21:41 | 18.13605 | -63.34964 | 12186 ft | 203 kts | 269° |
| 2026-04-26 21:41 | 18.13582 | -63.36451 | 12415 ft | 204 kts | 269° |
| 2026-04-26 21:42 | 18.13559 | -63.37944 | 12640 ft | 205 kts | 269° |
| 2026-04-26 21:42 | 18.13536 | -63.39442 | 12862 ft | 206 kts | 269° |
| 2026-04-26 21:42 | 18.13512 | -63.40944 | 13080 ft | 207 kts | 270° |
| 2026-04-26 21:42 | 18.13489 | -63.42453 | 13294 ft | 208 kts | 270° |
| 2026-04-26 21:43 | 18.13465 | -63.43990 | 13508 ft | 209 kts | 270° |
| 2026-04-26 21:43 | 18.13441 | -63.45521 | 13717 ft | 210 kts | 270° |
| 2026-04-26 21:43 | 18.13416 | -63.47035 | 13920 ft | 211 kts | 270° |
| 2026-04-26 21:43 | 18.13391 | -63.48595 | 14124 ft | 211 kts | 270° |
| 2026-04-26 21:44 | 18.13367 | -63.50125 | 14321 ft | 212 kts | 270° |
| 2026-04-26 21:44 | 18.13342 | -63.51677 | 14516 ft | 213 kts | 270° |
| 2026-04-26 21:44 | 18.13317 | -63.53231 | 14708 ft | 214 kts | 270° |
| 2026-04-26 21:44 | 18.13291 | -63.54795 | 14897 ft | 215 kts | 270° |
| 2026-04-26 21:45 | 18.13265 | -63.56380 | 15085 ft | 215 kts | 270° |
| 2026-04-26 21:45 | 18.13239 | -63.57953 | 15269 ft | 216 kts | 270° |
| 2026-04-26 21:45 | 18.13213 | -63.59536 | 15449 ft | 217 kts | 270° |
| 2026-04-26 21:45 | 18.13187 | -63.61119 | 15626 ft | 218 kts | 270° |
| 2026-04-26 21:46 | 18.13160 | -63.62702 | 15800 ft | 218 kts | 270° |
| 2026-04-26 21:46 | 18.13133 | -63.64314 | 15968 ft | 220 kts | 270° |
| 2026-04-26 21:46 | 18.13106 | -63.65958 | 16003 ft | 227 kts | 270° |
| 2026-04-26 21:46 | 18.13224 | -63.67614 | 16014 ft | 234 kts | 279° |
| 2026-04-26 21:47 | 18.13440 | -63.69332 | 16010 ft | 241 kts | 279° |
| 2026-04-26 21:47 | 18.13667 | -63.71115 | 16008 ft | 247 kts | 279° |
| 2026-04-26 21:47 | 18.13899 | -63.72924 | 16007 ft | 252 kts | 279° |
| 2026-04-26 21:47 | 18.14134 | -63.74763 | 16006 ft | 257 kts | 279° |
| 2026-04-26 21:48 | 18.14373 | -63.76638 | 16005 ft | 261 kts | 279° |
| 2026-04-26 21:48 | 18.14615 | -63.78524 | 16004 ft | 264 kts | 279° |
| 2026-04-26 21:48 | 18.14861 | -63.80456 | 16004 ft | 267 kts | 279° |
| 2026-04-26 21:48 | 18.15110 | -63.82400 | 16003 ft | 269 kts | 279° |
| 2026-04-26 21:49 | 18.15359 | -63.84359 | 16003 ft | 271 kts | 279° |
| 2026-04-26 21:49 | 18.15610 | -63.86326 | 16002 ft | 273 kts | 279° |
| 2026-04-26 21:49 | 18.15864 | -63.88316 | 16002 ft | 275 kts | 279° |
| 2026-04-26 21:49 | 18.16118 | -63.90311 | 16002 ft | 276 kts | 279° |
| 2026-04-26 21:50 | 18.16372 | -63.92312 | 16002 ft | 277 kts | 279° |
| 2026-04-26 21:50 | 18.16625 | -63.94303 | 16001 ft | 278 kts | 279° |
| 2026-04-26 21:50 | 18.16883 | -63.96334 | 16001 ft | 279 kts | 279° |
| 2026-04-26 21:50 | 18.17139 | -63.98350 | 16001 ft | 279 kts | 279° |
| 2026-04-26 21:51 | 18.17397 | -64.00382 | 16001 ft | 280 kts | 279° |
| 2026-04-26 21:51 | 18.17652 | -64.02396 | 16001 ft | 280 kts | 279° |
| 2026-04-26 21:51 | 18.17909 | -64.04429 | 16001 ft | 281 kts | 279° |
| 2026-04-26 21:51 | 18.18169 | -64.06487 | 16001 ft | 281 kts | 279° |
| 2026-04-26 21:52 | 18.18423 | -64.08497 | 16000 ft | 281 kts | 279° |
| 2026-04-26 21:52 | 18.18683 | -64.10559 | 16000 ft | 282 kts | 279° |
| 2026-04-26 21:52 | 18.18940 | -64.12594 | 16000 ft | 282 kts | 279° |
| 2026-04-26 21:52 | 18.19196 | -64.14623 | 16001 ft | 282 kts | 279° |
| 2026-04-26 21:53 | 18.19456 | -64.16687 | 16001 ft | 282 kts | 279° |
| 2026-04-26 21:53 | 18.19714 | -64.18742 | 16001 ft | 282 kts | 279° |
| 2026-04-26 21:53 | 18.19969 | -64.20773 | 16001 ft | 282 kts | 279° |
| 2026-04-26 21:53 | 18.20227 | -64.22827 | 16001 ft | 283 kts | 279° |
| 2026-04-26 21:54 | 18.20484 | -64.24876 | 16001 ft | 283 kts | 279° |
| 2026-04-26 21:54 | 18.20742 | -64.26929 | 16001 ft | 283 kts | 279° |
| 2026-04-26 21:54 | 18.20999 | -64.28986 | 16001 ft | 283 kts | 279° |
| 2026-04-26 21:54 | 18.21253 | -64.31011 | 16001 ft | 283 kts | 279° |
| 2026-04-26 21:55 | 18.21511 | -64.33076 | 16001 ft | 283 kts | 279° |
| 2026-04-26 21:55 | 18.21766 | -64.35115 | 16001 ft | 283 kts | 279° |
| 2026-04-26 21:55 | 18.22022 | -64.37169 | 16001 ft | 283 kts | 279° |
| 2026-04-26 21:55 | 18.22275 | -64.39201 | 16001 ft | 283 kts | 279° |
| 2026-04-26 21:56 | 18.22533 | -64.41270 | 16001 ft | 283 kts | 279° |
| 2026-04-26 21:56 | 18.22789 | -64.43330 | 16001 ft | 283 kts | 279° |
| 2026-04-26 21:56 | 18.23042 | -64.45358 | 16001 ft | 283 kts | 279° |
| 2026-04-26 21:56 | 18.23298 | -64.47418 | 16001 ft | 283 kts | 279° |
| 2026-04-26 21:57 | 18.23553 | -64.49474 | 16001 ft | 283 kts | 279° |
| 2026-04-26 21:57 | 18.23808 | -64.51530 | 16002 ft | 283 kts | 279° |
| 2026-04-26 21:57 | 18.24062 | -64.53584 | 16002 ft | 283 kts | 279° |
| 2026-04-26 21:57 | 18.24316 | -64.55629 | 16002 ft | 283 kts | 279° |
| 2026-04-26 21:58 | 18.24572 | -64.57703 | 16001 ft | 283 kts | 279° |
| 2026-04-26 21:58 | 18.24826 | -64.59759 | 16000 ft | 284 kts | 279° |
| 2026-04-26 21:58 | 18.25079 | -64.61808 | 15998 ft | 284 kts | 279° |
| 2026-04-26 21:58 | 18.25333 | -64.63864 | 15997 ft | 284 kts | 279° |
| 2026-04-26 21:59 | 18.25585 | -64.65910 | 15993 ft | 284 kts | 278° |
| 2026-04-26 21:59 | 18.25841 | -64.67985 | 15991 ft | 284 kts | 278° |
| 2026-04-26 21:59 | 18.26094 | -64.70045 | 15989 ft | 284 kts | 278° |
| 2026-04-26 21:59 | 18.26343 | -64.72072 | 15987 ft | 283 kts | 278° |
| 2026-04-26 22:00 | 18.26596 | -64.74129 | 15986 ft | 283 kts | 278° |
| 2026-04-26 22:00 | 18.26850 | -64.76204 | 15984 ft | 283 kts | 278° |
| 2026-04-26 22:00 | 18.27102 | -64.78253 | 15983 ft | 283 kts | 278° |
| 2026-04-26 22:00 | 18.27356 | -64.80326 | 15981 ft | 283 kts | 278° |
| 2026-04-26 22:01 | 18.27605 | -64.82365 | 15981 ft | 283 kts | 278° |
| 2026-04-26 22:01 | 18.27857 | -64.84425 | 15981 ft | 283 kts | 278° |
| 2026-04-26 22:01 | 18.28107 | -64.86474 | 15981 ft | 283 kts | 278° |
| 2026-04-26 22:01 | 18.28358 | -64.88530 | 15981 ft | 283 kts | 278° |
| 2026-04-26 22:02 | 18.28609 | -64.90591 | 15981 ft | 282 kts | 278° |
| 2026-04-26 22:02 | 18.28858 | -64.92635 | 15981 ft | 282 kts | 278° |
| 2026-04-26 22:02 | 18.29106 | -64.94675 | 15981 ft | 282 kts | 278° |
| 2026-04-26 22:02 | 18.29355 | -64.96715 | 15981 ft | 282 kts | 279° |
| 2026-04-26 22:03 | 18.29602 | -64.98753 | 15982 ft | 282 kts | 279° |
| 2026-04-26 22:03 | 18.29870 | -65.00803 | 15982 ft | 281 kts | 279° |
| 2026-04-26 22:03 | 18.30154 | -65.02831 | 15982 ft | 281 kts | 280° |
| 2026-04-26 22:03 | 18.30447 | -65.04882 | 15982 ft | 281 kts | 280° |
| 2026-04-26 22:04 | 18.30738 | -65.06912 | 15982 ft | 281 kts | 280° |
| 2026-04-26 22:04 | 18.31029 | -65.08933 | 15982 ft | 281 kts | 280° |
| 2026-04-26 22:04 | 18.31322 | -65.10970 | 15982 ft | 280 kts | 280° |
| 2026-04-26 22:04 | 18.31611 | -65.12981 | 16004 ft | 280 kts | 280° |
| 2026-04-26 22:05 | 18.31902 | -65.15007 | 16008 ft | 279 kts | 280° |
| 2026-04-26 22:05 | 18.32193 | -65.17036 | 16009 ft | 280 kts | 280° |
| 2026-04-26 22:05 | 18.32483 | -65.19056 | 16009 ft | 280 kts | 280° |
| 2026-04-26 22:05 | 18.32772 | -65.21071 | 16010 ft | 280 kts | 280° |
| 2026-04-26 22:06 | 18.33062 | -65.23096 | 16010 ft | 280 kts | 280° |
| 2026-04-26 22:06 | 18.33350 | -65.25108 | 16007 ft | 280 kts | 280° |
| 2026-04-26 22:06 | 18.33647 | -65.27184 | 15623 ft | 295 kts | 280° |
| 2026-04-26 22:06 | 18.33956 | -65.29342 | 15134 ft | 301 kts | 280° |
| 2026-04-26 22:07 | 18.34269 | -65.31534 | 14641 ft | 304 kts | 280° |
| 2026-04-26 22:07 | 18.34582 | -65.33728 | 14150 ft | 306 kts | 280° |
| 2026-04-26 22:07 | 18.34898 | -65.35947 | 13656 ft | 308 kts | 279° |
| 2026-04-26 22:07 | 18.35213 | -65.38161 | 13164 ft | 309 kts | 279° |
| 2026-04-26 22:08 | 18.35531 | -65.40398 | 12668 ft | 310 kts | 279° |
| 2026-04-26 22:08 | 18.35850 | -65.42637 | 12172 ft | 310 kts | 279° |
| 2026-04-26 22:08 | 18.36166 | -65.44864 | 11679 ft | 310 kts | 279° |
| 2026-04-26 22:08 | 18.36485 | -65.47110 | 11181 ft | 310 kts | 279° |
| 2026-04-26 22:09 | 18.36800 | -65.49332 | 10688 ft | 310 kts | 279° |
| 2026-04-26 22:09 | 18.37119 | -65.51583 | 10188 ft | 309 kts | 279° |
| 2026-04-26 22:09 | 18.37434 | -65.53810 | 9693 ft | 309 kts | 279° |
| 2026-04-26 22:09 | 18.37750 | -65.56047 | 9191 ft | 305 kts | 279° |
| 2026-04-26 22:10 | 18.38059 | -65.58229 | 8689 ft | 300 kts | 278° |
| 2026-04-26 22:10 | 18.38362 | -65.60374 | 8188 ft | 295 kts | 278° |
| 2026-04-26 22:10 | 18.38659 | -65.62472 | 7691 ft | 291 kts | 278° |
| 2026-04-26 22:10 | 18.38953 | -65.64562 | 7191 ft | 288 kts | 278° |
| 2026-04-26 22:11 | 18.39246 | -65.66641 | 6686 ft | 284 kts | 277° |
| 2026-04-26 22:11 | 18.39535 | -65.68695 | 6183 ft | 281 kts | 276° |
| 2026-04-26 22:11 | 18.39815 | -65.70684 | 5797 ft | 274 kts | 276° |
| 2026-04-26 22:11 | 18.40056 | -65.72636 | 5307 ft | 269 kts | 275° |
| 2026-04-26 22:12 | 18.39951 | -65.74596 | 4803 ft | 265 kts | 266° |
| 2026-04-26 22:12 | 18.39760 | -65.76511 | 4299 ft | 261 kts | 266° |
| 2026-04-26 22:12 | 18.39571 | -65.78364 | 4017 ft | 248 kts | 266° |
| 2026-04-26 22:12 | 18.39390 | -65.80104 | 3965 ft | 228 kts | 266° |
| 2026-04-26 22:13 | 18.39220 | -65.81689 | 3957 ft | 209 kts | 266° |
| 2026-04-26 22:13 | 18.39059 | -65.83136 | 3955 ft | 191 kts | 266° |
| 2026-04-26 22:13 | 18.38903 | -65.84481 | 3954 ft | 175 kts | 266° |
| 2026-04-26 22:13 | 18.38757 | -65.85697 | 3951 ft | 161 kts | 266° |
| 2026-04-26 22:14 | 18.38616 | -65.86820 | 3949 ft | 146 kts | 266° |
| 2026-04-26 22:14 | 18.38482 | -65.87863 | 3988 ft | 152 kts | 266° |
| 2026-04-26 22:14 | 18.38337 | -65.89061 | 4005 ft | 177 kts | 266° |
| 2026-04-26 22:14 | 18.38181 | -65.90423 | 3990 ft | 193 kts | 266° |
| 2026-04-26 22:15 | 18.38021 | -65.91852 | 3983 ft | 202 kts | 266° |
| 2026-04-26 22:15 | 18.37857 | -65.93354 | 3980 ft | 208 kts | 266° |
| 2026-04-26 22:15 | 18.37692 | -65.94884 | 3978 ft | 214 kts | 266° |
| 2026-04-26 22:15 | 18.37524 | -65.96458 | 3977 ft | 218 kts | 266° |
| 2026-04-26 22:16 | 18.37353 | -65.98071 | 3977 ft | 223 kts | 266° |
| 2026-04-26 22:16 | 18.37180 | -65.99718 | 3786 ft | 231 kts | 266° |
| 2026-04-26 22:16 | 18.37009 | -66.01418 | 3303 ft | 243 kts | 266° |
| 2026-04-26 22:16 | 18.36836 | -66.03219 | 3025 ft | 243 kts | 266° |
| 2026-04-26 22:17 | 18.36670 | -66.04950 | 2975 ft | 234 kts | 266° |
| 2026-04-26 22:17 | 18.36508 | -66.06621 | 2966 ft | 226 kts | 266° |
| 2026-04-26 22:17 | 18.36350 | -66.08238 | 2966 ft | 218 kts | 266° |
| 2026-04-26 22:17 | 18.36192 | -66.09832 | 2916 ft | 214 kts | 266° |
| 2026-04-26 22:18 | 18.36040 | -66.11372 | 2905 ft | 209 kts | 266° |
| 2026-04-26 22:18 | 18.35892 | -66.12856 | 2904 ft | 204 kts | 266° |
| 2026-04-26 22:18 | 18.35742 | -66.14343 | 2904 ft | 200 kts | 266° |
| 2026-04-26 22:18 | 18.35597 | -66.15783 | 2904 ft | 196 kts | 266° |
| 2026-04-26 22:19 | 18.35453 | -66.17213 | 2642 ft | 207 kts | 266° |
| 2026-04-26 22:19 | 18.35306 | -66.18746 | 2443 ft | 210 kts | 266° |
| 2026-04-26 22:19 | 18.35163 | -66.20261 | 2410 ft | 205 kts | 266° |
| 2026-04-26 22:19 | 18.35024 | -66.21733 | 2410 ft | 205 kts | 266° |
| 2026-04-26 22:20 | 18.35053 | -66.23239 | 2409 ft | 207 kts | 281° |
| 2026-04-26 22:20 | 18.35513 | -66.24674 | 2408 ft | 208 kts | 297° |
| 2026-04-26 22:20 | 18.36562 | -66.25665 | 2399 ft | 204 kts | 340° |
| 2026-04-26 22:20 | 18.37924 | -66.25957 | 2405 ft | 199 kts | 347° |
| 2026-04-26 22:21 | 18.39271 | -66.26211 | 2468 ft | 191 kts | 347° |
| 2026-04-26 22:21 | 18.40560 | -66.26440 | 2494 ft | 187 kts | 352° |
| 2026-04-26 22:21 | 18.41773 | -66.25960 | 2506 ft | 193 kts | 40° |
| 2026-04-26 22:21 | 18.42346 | -66.24696 | 2520 ft | 196 kts | 76° |
| 2026-04-26 22:22 | 18.42620 | -66.23305 | 2510 ft | 195 kts | 73° |
| 2026-04-26 22:22 | 18.42939 | -66.21918 | 2508 ft | 194 kts | 73° |
| 2026-04-26 22:22 | 18.43252 | -66.20544 | 2507 ft | 193 kts | 73° |
| 2026-04-26 22:22 | 18.43284 | -66.19141 | 2513 ft | 194 kts | 98° |
| 2026-04-26 22:23 | 18.43336 | -66.17728 | 2515 ft | 189 kts | 82° |
| 2026-04-26 22:23 | 18.43392 | -66.16415 | 2588 ft | 166 kts | 89° |
| 2026-04-26 22:23 | 18.43383 | -66.15256 | 2489 ft | 146 kts | 87° |
| 2026-04-26 22:23 | 18.43379 | -66.14265 | 2341 ft | 131 kts | 87° |
| 2026-04-26 22:24 | 18.43378 | -66.13356 | 2162 ft | 122 kts | 87° |
| 2026-04-26 22:24 | 18.43378 | -66.12444 | 2119 ft | 127 kts | 87° |
| 2026-04-26 22:24 | 18.43378 | -66.11492 | 1952 ft | 134 kts | 88° |
| 2026-04-26 22:24 | 18.43375 | -66.10506 | 1757 ft | 132 kts | 88° |
| 2026-04-26 22:25 | 18.43373 | -66.09556 | 1554 ft | 124 kts | 88° |
| 2026-04-26 22:25 | 18.43372 | -66.08663 | 1384 ft | 122 kts | 88° |
| 2026-04-26 22:25 | 18.43370 | -66.07764 | 1240 ft | 126 kts | 88° |
| 2026-04-26 22:25 | 18.43369 | -66.06812 | 1080 ft | 135 kts | 89° |
| 2026-04-26 22:26 | 18.43367 | -66.05798 | 895 ft | 141 kts | 89° |
| 2026-04-26 22:26 | 18.43363 | -66.04797 | 700 ft | 133 kts | 89° |
| 2026-04-26 22:26 | 18.43352 | -66.03835 | 468 ft | 132 kts | 90° |
| 2026-04-26 22:26 | 18.43353 | -66.02869 | 333 ft | 130 kts | 89° |
| 2026-04-26 22:27 | 18.43356 | -66.01910 | 174 ft | 133 kts | 90° |
| 2026-04-26 22:27 | 18.43355 | -66.00929 | 19 ft | 130 kts | 90° |
| 2026-04-26 22:27 | 18.43355 | -66.00099 | 12 ft | 70 kts | 89° |
| 2026-04-26 22:27 | 18.43360 | -65.99709 | 12 ft | 41 kts | 89° |
| 2026-04-26 22:28 | 18.43413 | -65.99550 | 12 ft | 15 kts | 13° |
| 2026-04-26 22:28 | 18.43482 | -65.99551 | 12 ft | 8 kts | 359° |
| 2026-04-26 22:28 | 18.43552 | -65.99552 | 12 ft | 10 kts | 1° |
| 2026-04-26 22:28 | 18.43563 | -65.99552 | 12 ft | 0 kts | 1° |
| 2026-04-26 22:29 | 18.43564 | -65.99552 | 12 ft | 2 kts | 355° |
| 2026-04-26 22:29 | 18.43558 | -65.99633 | 12 ft | 14 kts | 272° |
| 2026-04-26 22:29 | 18.43561 | -65.99729 | 12 ft | 11 kts | 272° |
| 2026-04-26 22:30 | 18.43562 | -65.99805 | 12 ft | 9 kts | 270° |
| 2026-04-26 22:30 | 18.43561 | -65.99882 | 12 ft | 17 kts | 269° |
| 2026-04-26 22:30 | 18.43631 | -65.99972 | 12 ft | 21 kts | 338° |
| 2026-04-26 22:30 | 18.43768 | -66.00014 | 12 ft | 18 kts | 334° |
| 2026-04-26 22:31 | 18.43796 | -66.00028 | 12 ft | 0 kts | 336° |
| 2026-04-26 22:32 | 18.43873 | -66.00066 | 12 ft | 21 kts | 331° |
| 2026-04-26 22:33 | 18.43984 | -66.00127 | 12 ft | 14 kts | 304° |
| 2026-04-26 22:33 | 18.43993 | -66.00275 | 12 ft | 0 kts | 337° |